Time;durP1;ratioP1;P1;durP2;ratioP2;P2;SDS_P1;SDS_P2;PMS_P1;PMS_P2;Temp;Humidity;BMP_temperature;BMP_pressure;BME280_temperature;BME280_humidity;BME280_pressure;Samples;Min_cycle;Max_cycle;Signal;HPM_P1;HPM_P2
2022/07/24 00:01:58;;;;;;;6.03;3.78;;;12.10;99.90;;;;;;5010988;28;20100;-60
2022/07/24 00:04:24;;;;;;;4.07;3.17;;;12.00;99.90;;;;;;5010534;28;20427;-62
2022/07/24 00:06:50;;;;;;;4.20;2.97;;;12.00;99.90;;;;;;5012545;28;20033;-62
2022/07/24 00:09:15;;;;;;;4.22;3.22;;;12.00;99.90;;;;;;4996026;28;20037;-62
2022/07/24 00:11:41;;;;;;;4.13;3.22;;;11.90;99.90;;;;;;5009557;28;20036;-61
2022/07/24 00:14:07;;;;;;;5.40;2.95;;;11.90;99.90;;;;;;5016041;28;20058;-62
2022/07/24 00:16:33;;;;;;;3.55;3.00;;;11.90;99.90;;;;;;5015675;28;20382;-62
2022/07/24 00:18:58;;;;;;;2.85;2.55;;;11.90;99.90;;;;;;5014725;28;20041;-61
2022/07/24 00:21:24;;;;;;;4.10;2.83;;;11.90;99.90;;;;;;5014597;28;20029;-62
2022/07/24 00:23:50;;;;;;;4.45;2.90;;;11.90;99.90;;;;;;5006672;28;20030;-62
2022/07/24 00:26:15;;;;;;;4.28;2.80;;;11.90;99.90;;;;;;5012652;28;20037;-62
2022/07/24 00:28:41;;;;;;;3.78;3.42;;;11.80;99.90;;;;;;5013741;28;20034;-62
2022/07/24 00:31:06;;;;;;;4.97;3.58;;;11.80;99.90;;;;;;5010828;28;20401;-62
2022/07/24 00:33:32;;;;;;;4.82;3.88;;;11.70;99.90;;;;;;4998557;28;20025;-62
2022/07/24 00:35:58;;;;;;;3.30;2.95;;;11.70;99.90;;;;;;5001069;28;20030;-61
2022/07/24 00:38:24;;;;;;;4.28;3.30;;;11.70;99.90;;;;;;5015128;28;20037;-63
2022/07/24 00:40:49;;;;;;;6.03;2.90;;;11.70;99.90;;;;;;5018255;28;20034;-62
2022/07/24 00:43:16;;;;;;;3.92;3.30;;;11.70;99.90;;;;;;5011071;28;20033;-62
2022/07/24 00:45:42;;;;;;;3.20;3.00;;;11.70;99.90;;;;;;4993181;28;20030;-63
2022/07/24 00:48:08;;;;;;;3.35;2.85;;;11.70;99.90;;;;;;5016681;28;20068;-63
2022/07/24 00:50:34;;;;;;;4.30;3.45;;;11.60;99.90;;;;;;4992817;28;20060;-61
2022/07/24 00:53:00;;;;;;;7.18;4.00;;;11.60;99.90;;;;;;5005987;28;20088;-62
2022/07/24 00:55:27;;;;;;;3.90;3.45;;;11.60;99.90;;;;;;5007447;28;20464;-61
2022/07/24 00:57:53;;;;;;;4.75;3.20;;;11.50;99.90;;;;;;5008019;28;20040;-62
2022/07/24 01:00:20;;;;;;;4.90;2.92;;;11.50;99.90;;;;;;5007894;28;20026;-63
2022/07/24 01:02:47;;;;;;;4.28;3.33;;;11.50;99.90;;;;;;5006444;28;20052;-63
2022/07/24 01:05:13;;;;;;;3.33;2.92;;;11.50;99.90;;;;;;5008737;28;20033;-62
2022/07/24 01:07:40;;;;;;;3.20;2.90;;;11.40;99.90;;;;;;5009856;28;20029;-63
2022/07/24 01:10:06;;;;;;;3.67;3.38;;;11.40;99.90;;;;;;5008056;28;20452;-63
2022/07/24 01:12:34;;;;;;;4.25;3.10;;;11.40;99.90;;;;;;5008570;28;20032;-62
2022/07/24 01:14:59;;;;;;;3.50;3.10;;;11.40;99.90;;;;;;5009646;28;20032;-63
2022/07/24 01:17:33;;;;;;;3.85;3.53;;;11.40;99.90;;;;;;5010275;28;20021;-62
2022/07/24 01:19:59;;;;;;;3.13;2.83;;;11.40;99.90;;;;;;4992797;28;20104;-62
2022/07/24 01:22:26;;;;;;;3.95;3.55;;;11.30;99.90;;;;;;5037573;22;20030;-48
2022/07/24 01:24:54;;;;;;;3.80;3.20;;;11.30;99.90;;;;;;5011141;28;20072;-49
2022/07/24 01:27:22;;;;;;;3.50;3.20;;;11.30;99.90;;;;;;5029215;28;20030;-51
2022/07/24 01:29:48;;;;;;;4.15;3.40;;;11.20;99.90;;;;;;5029172;28;20025;-49
2022/07/24 01:32:14;;;;;;;3.92;3.53;;;11.20;99.90;;;;;;5029181;28;20036;-53
2022/07/24 01:34:39;;;;;;;4.20;3.50;;;11.20;99.90;;;;;;5011744;28;20025;-49
2022/07/24 01:37:05;;;;;;;4.60;3.47;;;11.20;99.90;;;;;;5029480;28;20399;-48
2022/07/24 01:39:30;;;;;;;4.18;3.13;;;11.20;99.90;;;;;;5029424;28;20025;-48
2022/07/24 01:41:56;;;;;;;3.85;3.25;;;11.20;99.90;;;;;;5028868;28;20485;-50
2022/07/24 01:44:22;;;;;;;4.43;3.75;;;11.20;99.90;;;;;;5028952;28;20049;-48
2022/07/24 01:46:47;;;;;;;3.33;2.83;;;11.10;99.90;;;;;;5029094;28;20025;-48
2022/07/24 01:49:13;;;;;;;4.47;4.07;;;11.10;99.90;;;;;;5009142;28;20075;-49
2022/07/24 01:51:38;;;;;;;4.32;3.88;;;11.10;99.90;;;;;;5028142;28;20682;-52
2022/07/24 01:54:04;;;;;;;4.47;4.03;;;11.10;99.90;;;;;;5029248;28;20108;-48
2022/07/24 01:56:31;;;;;;;6.50;4.28;;;11.00;99.90;;;;;;5029079;28;20403;-49
2022/07/24 01:58:56;;;;;;;3.40;3.10;;;11.10;99.90;;;;;;5029109;28;20024;-51
2022/07/24 02:01:22;;;;;;;3.75;3.20;;;11.00;99.90;;;;;;5028563;28;20025;-52
2022/07/24 02:03:48;;;;;;;6.07;3.60;;;11.00;99.90;;;;;;5029254;28;20028;-49
2022/07/24 02:06:14;;;;;;;4.75;3.80;;;11.00;99.90;;;;;;5028418;28;20387;-51
2022/07/24 02:08:40;;;;;;;4.32;3.90;;;11.00;99.90;;;;;;5029056;28;20035;-51
2022/07/24 02:11:06;;;;;;;7.80;3.67;;;11.00;99.90;;;;;;5028880;28;20026;-54
2022/07/24 02:13:31;;;;;;;5.40;4.05;;;11.00;99.90;;;;;;5028237;28;20037;-51
2022/07/24 02:15:57;;;;;;;4.97;3.70;;;11.00;99.90;;;;;;5010712;28;20032;-51
2022/07/24 02:18:23;;;;;;;4.00;3.60;;;10.90;99.90;;;;;;5028849;28;20473;-51
2022/07/24 02:20:49;;;;;;;5.50;3.70;;;10.90;99.90;;;;;;5028869;28;20029;-49
2022/07/24 02:23:17;;;;;;;4.60;3.70;;;10.90;99.90;;;;;;5027865;28;20251;-49
2022/07/24 02:25:47;;;;;;;6.00;3.85;;;10.90;99.90;;;;;;5028987;28;20088;-48
2022/07/24 02:28:13;;;;;;;9.45;4.80;;;10.90;99.90;;;;;;5028551;28;20033;-48
2022/07/24 02:30:39;;;;;;;4.88;3.78;;;10.90;99.90;;;;;;5023622;28;20048;-49
2022/07/24 02:33:05;;;;;;;5.13;3.80;;;10.90;99.90;;;;;;5010907;28;20488;-48
2022/07/24 02:35:30;;;;;;;5.40;3.55;;;10.90;99.90;;;;;;5028939;28;20036;-50
2022/07/24 02:37:56;;;;;;;4.18;3.78;;;10.90;99.90;;;;;;5028930;28;20140;-50
2022/07/24 02:40:22;;;;;;;4.28;3.88;;;10.80;99.90;;;;;;5028507;28;20610;-48
2022/07/24 02:42:48;;;;;;;3.70;3.40;;;10.80;99.90;;;;;;5027865;28;20500;-51
2022/07/24 02:45:13;;;;;;;4.97;3.70;;;10.80;99.90;;;;;;5028522;28;20029;-51
2022/07/24 02:47:57;;;;;;;4.10;3.70;;;10.90;99.90;;;;;;5028128;28;20032;-52
2022/07/24 02:50:25;;;;;;;6.10;4.75;;;10.80;99.90;;;;;;5027869;28;20032;-49
2022/07/24 02:52:51;;;;;;;5.55;4.70;;;10.80;99.90;;;;;;5028289;28;20436;-48
2022/07/24 02:55:17;;;;;;;7.70;5.10;;;10.80;99.90;;;;;;5028385;28;20101;-49
2022/07/24 02:57:43;;;;;;;6.30;5.47;;;10.80;99.90;;;;;;5028392;28;20566;-50
2022/07/24 03:00:12;;;;;;;7.32;5.97;;;10.80;99.90;;;;;;5028466;28;20034;-49
2022/07/24 03:02:38;;;;;;;5.72;5.00;;;10.80;99.90;;;;;;5027954;28;20447;-51
2022/07/24 03:05:05;;;;;;;6.28;5.25;;;10.80;99.90;;;;;;5028594;28;20033;-51
2022/07/24 03:07:31;;;;;;;6.53;5.22;;;10.80;99.90;;;;;;5027724;28;20044;-51
2022/07/24 03:09:56;;;;;;;6.82;5.55;;;10.70;99.90;;;;;;5028778;28;20026;-50
2022/07/24 03:12:22;;;;;;;5.20;4.70;;;10.70;99.90;;;;;;5032219;28;20479;-48
2022/07/24 03:14:48;;;;;;;6.15;5.55;;;10.80;99.90;;;;;;5032205;28;20026;-50
2022/07/24 03:17:13;;;;;;;6.10;5.50;;;10.80;99.90;;;;;;5032227;28;20033;-49
2022/07/24 03:19:39;;;;;;;8.10;5.88;;;10.80;99.90;;;;;;5031796;28;20025;-52
2022/07/24 03:22:04;;;;;;;7.43;5.43;;;10.70;99.90;;;;;;5031822;28;20102;-52
2022/07/24 03:24:30;;;;;;;7.25;4.68;;;10.70;99.90;;;;;;5031629;28;20044;-49
2022/07/24 03:26:56;;;;;;;6.00;4.43;;;10.70;99.90;;;;;;5031668;28;20029;-51
2022/07/24 03:29:21;;;;;;;6.00;4.80;;;10.70;99.90;;;;;;5013565;28;20109;-51
2022/07/24 03:31:47;;;;;;;4.38;3.97;;;10.70;99.90;;;;;;5013439;28;20116;-48
2022/07/24 03:34:12;;;;;;;4.65;4.00;;;10.70;99.90;;;;;;5031746;28;20014;-47
2022/07/24 03:36:38;;;;;;;7.25;4.57;;;10.70;99.90;;;;;;5031541;28;20365;-48
2022/07/24 03:39:04;;;;;;;4.88;4.38;;;10.70;99.90;;;;;;5031459;28;20037;-48
2022/07/24 03:41:30;;;;;;;4.35;3.95;;;10.70;99.90;;;;;;5031425;28;20025;-50
2022/07/24 03:43:56;;;;;;;4.93;4.05;;;10.70;99.90;;;;;;5031550;28;20032;-51
2022/07/24 03:46:22;;;;;;;5.25;4.53;;;10.70;99.90;;;;;;5013671;28;20067;-51
2022/07/24 03:48:47;;;;;;;4.88;4.43;;;10.70;99.90;;;;;;5013810;28;20049;-50
2022/07/24 03:51:13;;;;;;;4.28;3.88;;;10.70;99.90;;;;;;5031414;28;20494;-50
2022/07/24 03:53:39;;;;;;;4.60;4.20;;;10.70;99.90;;;;;;5013356;28;20022;-48
2022/07/24 03:56:09;;;;;;;5.13;4.57;;;10.80;99.90;;;;;;5031237;28;20048;-48
2022/07/24 03:58:35;;;;;;;4.80;4.00;;;10.80;99.90;;;;;;5031230;28;20022;-53
2022/07/24 04:01:00;;;;;;;4.72;4.20;;;10.80;99.90;;;;;;5031107;28;20031;-51
2022/07/24 04:03:26;;;;;;;5.65;3.95;;;10.80;99.90;;;;;;5031044;28;20079;-49
2022/07/24 04:05:52;;;;;;;7.50;4.60;;;10.90;99.90;;;;;;5030779;28;20033;-50
2022/07/24 04:08:17;;;;;;;6.05;4.30;;;10.90;99.90;;;;;;5031066;28;20033;-55
2022/07/24 04:10:43;;;;;;;6.85;4.88;;;11.00;99.90;;;;;;5031051;28;20026;-50
2022/07/24 04:13:08;;;;;;;5.20;4.57;;;11.00;99.90;;;;;;5030625;28;20086;-55
2022/07/24 04:15:34;;;;;;;5.18;4.07;;;11.00;99.90;;;;;;5030186;28;20022;-53
2022/07/24 04:18:00;;;;;;;6.00;4.68;;;11.10;99.90;;;;;;5030441;28;20094;-51
2022/07/24 04:20:25;;;;;;;6.55;4.75;;;11.10;99.90;;;;;;5030717;28;20399;-53
2022/07/24 04:22:51;;;;;;;6.60;4.47;;;11.10;99.90;;;;;;5030175;28;20025;-52
2022/07/24 04:25:17;;;;;;;5.80;4.72;;;11.10;99.90;;;;;;5031108;28;20389;-51
2022/07/24 04:27:43;;;;;;;4.63;4.13;;;11.10;99.90;;;;;;5013066;28;20021;-48
2022/07/24 04:30:10;;;;;;;5.00;4.30;;;11.20;99.90;;;;;;5030169;28;20496;-53
2022/07/24 04:32:35;;;;;;;5.35;4.60;;;11.20;99.90;;;;;;5030069;28;20616;-54
2022/07/24 04:35:01;;;;;;;6.55;4.93;;;11.20;99.90;;;;;;5029850;28;20029;-52
2022/07/24 04:37:27;;;;;;;5.75;4.78;;;11.20;99.90;;;;;;5030455;28;20410;-52
2022/07/24 04:39:52;;;;;;;4.90;4.38;;;11.30;99.90;;;;;;5012487;28;20083;-51
2022/07/24 04:42:18;;;;;;;5.25;4.57;;;11.30;99.90;;;;;;5012481;28;20029;-51
2022/07/24 04:44:44;;;;;;;5.70;4.57;;;11.40;99.90;;;;;;5030098;28;20095;-53
2022/07/24 04:47:09;;;;;;;5.80;4.63;;;11.40;99.90;;;;;;5029930;28;20100;-49
2022/07/24 04:49:35;;;;;;;4.85;3.90;;;11.40;99.90;;;;;;5030177;28;20105;-49
2022/07/24 04:52:00;;;;;;;5.00;4.20;;;11.50;99.90;;;;;;5011918;28;20042;-50
2022/07/24 04:54:26;;;;;;;5.13;4.30;;;11.50;99.90;;;;;;5029994;28;20021;-49
2022/07/24 04:56:51;;;;;;;5.80;3.97;;;11.50;99.90;;;;;;5030119;28;20104;-48
2022/07/24 04:59:17;;;;;;;5.18;4.05;;;11.60;99.90;;;;;;5029953;28;20554;-47
2022/07/24 05:01:43;;;;;;;4.40;4.00;;;11.60;99.90;;;;;;5030081;28;20029;-48
2022/07/24 05:04:08;;;;;;;4.97;4.10;;;11.60;99.90;;;;;;5030051;28;20030;-51
2022/07/24 05:06:34;;;;;;;4.70;4.07;;;11.60;99.90;;;;;;5030329;28;20025;-52
2022/07/24 05:08:59;;;;;;;4.82;4.35;;;11.70;99.90;;;;;;5029924;28;20029;-49
2022/07/24 05:11:25;;;;;;;5.03;3.80;;;11.80;99.90;;;;;;5029516;28;20078;-48
2022/07/24 05:13:50;;;;;;;4.72;3.78;;;11.80;99.90;;;;;;5029985;28;20045;-50
2022/07/24 05:16:16;;;;;;;6.10;4.30;;;11.90;99.90;;;;;;5029752;28;20045;-50
2022/07/24 05:18:42;;;;;;;4.20;3.80;;;12.00;99.90;;;;;;5029828;28;20424;-50
2022/07/24 05:21:07;;;;;;;4.88;3.95;;;12.10;99.90;;;;;;5028939;28;20061;-48
2022/07/24 05:23:33;;;;;;;5.57;3.90;;;12.10;99.90;;;;;;5029408;28;20090;-52
2022/07/24 05:25:59;;;;;;;5.47;3.75;;;12.20;99.90;;;;;;5012326;28;20028;-48
2022/07/24 05:28:25;;;;;;;3.92;3.63;;;12.30;99.90;;;;;;5007464;28;20036;-50
2022/07/24 05:30:50;;;;;;;3.78;3.47;;;12.40;99.90;;;;;;5029840;28;20082;-48
2022/07/24 05:33:16;;;;;;;4.18;3.35;;;12.50;99.90;;;;;;5028923;28;20026;-48
2022/07/24 05:35:41;;;;;;;3.92;3.60;;;12.60;99.90;;;;;;5011828;28;20032;-49
2022/07/24 05:38:07;;;;;;;4.18;3.08;;;12.70;99.90;;;;;;5029383;28;20045;-48
2022/07/24 05:40:32;;;;;;;4.68;3.53;;;12.80;99.90;;;;;;5029752;28;20056;-52
2022/07/24 05:42:58;;;;;;;4.38;3.15;;;12.90;99.90;;;;;;5029271;28;20025;-49
2022/07/24 05:45:24;;;;;;;3.83;2.78;;;13.00;99.90;;;;;;5028975;28;20064;-51
2022/07/24 05:47:49;;;;;;;4.50;3.03;;;13.10;99.90;;;;;;5029466;28;20073;-48
2022/07/24 05:50:15;;;;;;;4.30;2.90;;;13.20;99.90;;;;;;5029117;28;20044;-48
2022/07/24 05:52:41;;;;;;;2.75;2.53;;;13.30;99.90;;;;;;5029145;28;20476;-48
2022/07/24 05:55:08;;;;;;;4.40;2.67;;;13.40;99.90;;;;;;5028914;28;20480;-49
2022/07/24 05:57:33;;;;;;;3.38;2.50;;;13.50;99.90;;;;;;5029993;28;20021;-53
2022/07/24 05:59:59;;;;;;;2.72;2.53;;;13.60;99.90;;;;;;5028754;28;20037;-49
2022/07/24 06:02:25;;;;;;;3.22;2.70;;;13.80;99.90;;;;;;5028513;28;20074;-48
2022/07/24 06:04:51;;;;;;;2.88;2.53;;;13.90;99.90;;;;;;5028972;28;20061;-51
2022/07/24 06:07:16;;;;;;;3.85;2.50;;;14.00;99.90;;;;;;5029299;28;20022;-53
2022/07/24 06:09:42;;;;;;;5.88;2.50;;;14.20;99.90;;;;;;5028548;28;20077;-53
2022/07/24 06:12:08;;;;;;;2.15;1.98;;;14.40;99.90;;;;;;5028037;28;20049;-51
2022/07/24 06:14:33;;;;;;;4.15;2.15;;;14.50;99.90;;;;;;5028798;28;20026;-50
2022/07/24 06:16:59;;;;;;;2.45;2.22;;;14.60;99.90;;;;;;5029294;28;20344;-52
2022/07/24 06:19:25;;;;;;;3.50;2.20;;;14.80;99.90;;;;;;5010945;28;20028;-50
2022/07/24 06:21:52;;;;;;;2.15;1.98;;;15.00;99.90;;;;;;5028932;28;20022;-50
2022/07/24 06:24:18;;;;;;;2.40;1.73;;;15.20;99.90;;;;;;5028430;28;20036;-52
2022/07/24 06:26:43;;;;;;;2.15;1.90;;;15.40;99.90;;;;;;5028826;28;20029;-52
2022/07/24 06:29:09;;;;;;;2.38;2.15;;;15.60;99.90;;;;;;5009836;28;20033;-54
2022/07/24 06:31:35;;;;;;;1.70;1.40;;;15.80;99.90;;;;;;5028285;28;20092;-50
2022/07/24 06:34:00;;;;;;;1.92;1.30;;;16.00;99.90;;;;;;5010468;28;20494;-50
2022/07/24 06:36:27;;;;;;;3.08;1.88;;;16.10;99.90;;;;;;5028663;28;20048;-49
2022/07/24 06:38:52;;;;;;;2.63;2.20;;;16.20;99.90;;;;;;5028762;28;20028;-54
2022/07/24 06:41:18;;;;;;;1.77;1.38;;;16.30;99.90;;;;;;5028566;28;20029;-51
2022/07/24 06:43:44;;;;;;;1.80;1.70;;;16.30;99.90;;;;;;5028584;28;20017;-51
2022/07/24 06:46:09;;;;;;;1.63;1.50;;;16.40;99.90;;;;;;5030870;28;20031;-52
2022/07/24 06:48:35;;;;;;;3.35;1.80;;;16.60;99.90;;;;;;5032173;28;20439;-53
2022/07/24 06:51:01;;;;;;;1.50;1.40;;;16.70;99.90;;;;;;5032605;28;20029;-56
2022/07/24 06:53:27;;;;;;;1.85;1.70;;;16.90;99.90;;;;;;5032118;28;20028;-53
2022/07/24 06:55:54;;;;;;;2.63;1.30;;;17.00;99.90;;;;;;5032641;28;20021;-51
2022/07/24 06:58:20;;;;;;;3.05;1.58;;;17.20;99.90;;;;;;5032496;28;20025;-51
2022/07/24 07:00:47;;;;;;;3.65;2.00;;;17.30;99.90;;;;;;5031236;28;20541;-53
2022/07/24 07:03:13;;;;;;;2.22;1.33;;;17.50;99.90;;;;;;5032129;28;20025;-49
2022/07/24 07:05:39;;;;;;;1.20;1.10;;;17.70;99.90;;;;;;5032367;28;20549;-52
2022/07/24 07:08:04;;;;;;;2.00;1.20;;;17.80;99.90;;;;;;5032011;28;20108;-49
2022/07/24 07:10:30;;;;;;;3.85;1.50;;;18.00;99.90;;;;;;5031984;28;20588;-49
2022/07/24 07:12:56;;;;;;;3.28;1.67;;;18.20;99.90;;;;;;5031811;28;20503;-50
2022/07/24 07:15:22;;;;;;;2.40;1.48;;;18.40;99.90;;;;;;5032342;28;20087;-50
2022/07/24 07:17:47;;;;;;;1.95;1.70;;;18.60;99.90;;;;;;5031515;28;20497;-49
2022/07/24 07:20:13;;;;;;;3.55;1.45;;;18.70;99.90;;;;;;5014248;28;20036;-49
2022/07/24 07:22:39;;;;;;;4.60;1.45;;;19.00;99.90;;;;;;5031653;28;20462;-56
2022/07/24 07:27:33;;;;;;;1.80;1.70;;;19.40;99.90;;;;;;5010893;28;20077;-59
2022/07/24 07:29:59;;;;;;;2.72;1.40;;;19.60;99.90;;;;;;5012142;28;20499;-59
2022/07/24 07:32:25;;;;;;;2.50;2.03;;;19.80;99.90;;;;;;5012494;28;20028;-59
2022/07/24 07:34:50;;;;;;;1.88;1.52;;;19.90;99.90;;;;;;5010898;28;20507;-63
2022/07/24 07:37:16;;;;;;;3.20;1.75;;;20.00;99.90;;;;;;5012134;28;20026;-57
2022/07/24 07:39:42;;;;;;;3.13;1.60;;;20.20;99.90;;;;;;4994587;28;20029;-59
2022/07/24 07:42:07;;;;;;;1.40;1.30;;;20.40;99.90;;;;;;5011388;28;20134;-59
2022/07/24 07:44:33;;;;;;;1.73;1.60;;;20.40;99.90;;;;;;5012038;28;20053;-60
2022/07/24 07:46:58;;;;;;;1.48;1.38;;;20.50;99.90;;;;;;5011570;28;20730;-59
2022/07/24 07:49:24;;;;;;;1.70;1.52;;;20.60;99.90;;;;;;4993777;28;20041;-59
2022/07/24 07:51:51;;;;;;;3.13;1.35;;;20.70;99.90;;;;;;4993405;28;20618;-57
2022/07/24 07:54:17;;;;;;;1.80;1.40;;;20.90;99.90;;;;;;4994168;28;20018;-57
2022/07/24 07:56:43;;;;;;;2.10;1.50;;;21.10;99.90;;;;;;5010694;28;20021;-56
2022/07/24 07:59:09;;;;;;;2.30;1.85;;;21.30;99.90;;;;;;5009391;28;20038;-58
2022/07/24 08:01:34;;;;;;;2.08;1.33;;;21.50;99.90;;;;;;5010810;28;20025;-60
2022/07/24 08:04:00;;;;;;;1.38;1.20;;;21.70;99.90;;;;;;5011374;28;20029;-57
2022/07/24 08:06:26;;;;;;;1.35;1.27;;;21.80;99.90;;;;;;5011381;28;20034;-58
2022/07/24 08:08:51;;;;;;;2.60;1.45;;;22.00;99.90;;;;;;5011120;28;20471;-59
2022/07/24 08:11:17;;;;;;;3.00;1.83;;;22.10;99.90;;;;;;5011391;28;20018;-58
2022/07/24 08:13:43;;;;;;;1.23;1.13;;;22.30;99.90;;;;;;5011280;28;20026;-59
2022/07/24 08:16:08;;;;;;;3.13;1.77;;;22.40;99.90;;;;;;5011195;28;20493;-57
2022/07/24 08:18:34;;;;;;;3.25;1.58;;;22.50;99.90;;;;;;5011109;28;20037;-57
2022/07/24 08:21:00;;;;;;;1.88;1.30;;;22.70;99.90;;;;;;5011115;28;20608;-60
2022/07/24 08:23:25;;;;;;;6.20;1.58;;;22.90;99.90;;;;;;5010058;28;20065;-57
2022/07/24 08:25:51;;;;;;;2.20;1.67;;;23.10;99.90;;;;;;4993434;28;20116;-57
2022/07/24 08:28:17;;;;;;;2.33;1.63;;;23.30;99.90;;;;;;5010480;28;20029;-59
2022/07/24 08:30:43;;;;;;;1.70;1.60;;;23.40;99.80;;;;;;5010822;28;20403;-59
2022/07/24 08:33:09;;;;;;;2.83;1.70;;;23.60;99.80;;;;;;5010038;28;20117;-59
2022/07/24 08:35:34;;;;;;;3.90;1.83;;;23.70;98.80;;;;;;5009842;28;20021;-57
2022/07/24 08:38:00;;;;;;;2.33;1.38;;;23.80;98.50;;;;;;5010384;28;20029;-60
2022/07/24 08:40:33;;;;;;;2.20;1.73;;;23.90;98.60;;;;;;5010215;28;20025;-60
2022/07/24 08:42:58;;;;;;;1.80;1.52;;;24.10;98.60;;;;;;5010255;28;20508;-59
2022/07/24 08:45:24;;;;;;;1.60;1.30;;;24.20;98.10;;;;;;5010275;28;20037;-58
2022/07/24 08:47:51;;;;;;;2.45;1.65;;;24.20;97.50;;;;;;5012845;28;20025;-57
2022/07/24 08:50:17;;;;;;;2.58;1.48;;;24.40;97.70;;;;;;5010188;28;20504;-60
2022/07/24 08:52:44;;;;;;;1.95;1.35;;;24.50;97.40;;;;;;5009960;28;20045;-57
2022/07/24 08:55:10;;;;;;;1.30;1.17;;;24.70;96.90;;;;;;5009978;28;20133;-58
2022/07/24 08:57:35;;;;;;;1.92;1.30;;;24.80;96.30;;;;;;5010628;28;20038;-61
2022/07/24 09:00:01;;;;;;;1.52;1.40;;;25.00;96.60;;;;;;5010185;28;20033;-59
2022/07/24 09:02:27;;;;;;;2.78;1.42;;;25.20;97.20;;;;;;5009916;28;20010;-56
2022/07/24 09:04:59;;;;;;;1.33;1.23;;;25.30;95.50;;;;;;5010227;28;20433;-55
2022/07/24 09:07:28;;;;;;;1.42;1.33;;;25.40;96.00;;;;;;5009781;28;20038;-54
2022/07/24 09:09:59;;;;;;;3.20;1.60;;;25.50;95.70;;;;;;5007352;28;20116;-57
2022/07/24 09:12:25;;;;;;;1.40;1.30;;;25.70;94.70;;;;;;5009285;28;20037;-56
2022/07/24 09:14:51;;;;;;;2.67;1.70;;;25.90;94.60;;;;;;5010064;28;20022;-54
2022/07/24 09:17:19;;;;;;;2.38;1.48;;;25.90;93.70;;;;;;4992052;28;20049;-59
2022/07/24 09:19:52;;;;;;;4.35;1.80;;;25.90;94.30;;;;;;5010336;28;20072;-58
2022/07/24 09:22:39;;;;;;;1.60;1.33;;;26.00;94.00;;;;;;5007798;28;20101;-55
2022/07/24 09:25:12;;;;;;;2.72;1.52;;;26.00;93.60;;;;;;5010043;28;20106;-55
2022/07/24 09:28:00;;;;;;;1.88;1.77;;;26.10;93.20;;;;;;5009553;28;20572;-56
2022/07/24 09:30:36;;;;;;;1.85;1.70;;;26.20;93.20;;;;;;5002134;28;20041;-57
2022/07/24 09:33:11;;;;;;;2.47;1.90;;;26.20;93.50;;;;;;4991477;28;20026;-56
2022/07/24 09:35:39;;;;;;;5.05;1.98;;;26.20;92.70;;;;;;5009119;28;20029;-56
2022/07/24 09:38:10;;;;;;;2.00;1.60;;;26.20;92.80;;;;;;5009437;28;20037;-56
2022/07/24 09:40:49;;;;;;;1.83;1.73;;;26.30;93.30;;;;;;5009470;28;20500;-58
2022/07/24 09:43:18;;;;;;;3.78;1.73;;;26.50;92.80;;;;;;5008653;28;20376;-57
2022/07/24 09:46:08;;;;;;;1.88;1.77;;;26.50;92.70;;;;;;5009723;28;20022;-57
2022/07/24 09:48:33;;;;;;;3.65;2.10;;;26.60;92.50;;;;;;5009306;28;20370;-57
2022/07/24 09:51:09;;;;;;;2.03;1.92;;;26.70;92.60;;;;;;5009663;28;20064;-56
2022/07/24 09:53:34;;;;;;;3.22;2.35;;;26.70;91.90;;;;;;5008900;28;20022;-57
2022/07/24 09:56:08;;;;;;;2.30;1.85;;;26.70;91.70;;;;;;5008137;28;20104;-59
2022/07/24 09:58:40;;;;;;;1.83;1.60;;;26.60;91.80;;;;;;5009432;28;20505;-57
2022/07/24 10:01:08;;;;;;;2.22;1.80;;;26.70;92.40;;;;;;5008195;28;20049;-56
2022/07/24 10:03:39;;;;;;;4.45;1.77;;;26.60;91.40;;;;;;5009364;28;20479;-54
2022/07/24 10:06:07;;;;;;;3.10;2.08;;;26.60;91.20;;;;;;5008968;28;20509;-59
2022/07/24 10:08:34;;;;;;;2.20;2.00;;;26.60;91.00;;;;;;5009138;28;20041;-58
2022/07/24 10:11:00;;;;;;;2.55;1.75;;;26.60;91.60;;;;;;5008834;28;20014;-58
2022/07/24 10:13:30;;;;;;;3.67;2.30;;;26.70;92.00;;;;;;5008901;28;20120;-56
2022/07/24 10:16:26;;;;;;;2.90;2.30;;;26.70;92.10;;;;;;5009117;28;20089;-57
2022/07/24 10:18:52;;;;;;;2.00;1.90;;;26.50;91.20;;;;;;5006067;28;20028;-56
2022/07/24 10:21:24;;;;;;;2.13;1.80;;;26.50;91.50;;;;;;4991097;28;20048;-58
2022/07/24 10:24:07;;;;;;;3.17;1.60;;;26.50;91.60;;;;;;5008903;28;20021;-57
2022/07/24 10:26:42;;;;;;;2.65;1.98;;;26.60;91.50;;;;;;5009092;28;20057;-58
2022/07/24 10:29:16;;;;;;;3.15;1.70;;;26.60;91.80;;;;;;5007529;28;20050;-57
2022/07/24 10:31:43;;;;;;;4.38;2.17;;;26.70;91.50;;;;;;4989951;28;20075;-58
2022/07/24 10:34:25;;;;;;;2.95;1.70;;;26.70;91.20;;;;;;5008396;28;20497;-59
2022/07/24 10:37:41;;;;;;;1.70;1.45;;;26.70;91.00;;;;;;5009538;28;20022;-58
2022/07/24 10:40:29;;;;;;;4.25;2.15;;;26.70;90.60;;;;;;4966525;28;20042;-58
2022/07/24 10:43:11;;;;;;;2.30;2.10;;;26.70;91.00;;;;;;4988023;28;20493;-58
2022/07/24 10:45:38;;;;;;;2.88;2.25;;;26.80;91.20;;;;;;5007931;28;20109;-59
2022/07/24 10:48:23;;;;;;;2.67;1.92;;;26.90;90.90;;;;;;5008683;28;20104;-60
2022/07/24 10:50:58;;;;;;;3.95;3.05;;;27.10;90.60;;;;;;5007073;28;20080;-56
2022/07/24 10:53:28;;;;;;;3.40;3.10;;;27.10;90.20;;;;;;5006076;28;20018;-57
2022/07/24 10:56:13;;;;;;;3.53;2.92;;;27.20;90.60;;;;;;4990731;28;20504;-57
2022/07/24 10:58:53;;;;;;;3.72;2.70;;;27.30;90.00;;;;;;5007967;28;20033;-56
2022/07/24 11:01:38;;;;;;;3.15;2.83;;;27.30;89.50;;;;;;5008143;28;20037;-57
2022/07/24 11:04:29;;;;;;;2.70;2.50;;;27.30;89.10;;;;;;5008466;28;20030;-57
2022/07/24 11:07:13;;;;;;;4.13;3.13;;;27.30;89.60;;;;;;5008744;28;20080;-54
2022/07/24 11:10:01;;;;;;;2.70;2.50;;;27.30;87.20;;;;;;5008514;28;20104;-54
2022/07/24 11:12:32;;;;;;;4.07;2.63;;;27.30;90.40;;;;;;5002019;28;20104;-59
2022/07/24 11:17:50;;;;;;;3.33;2.92;;;27.40;89.20;;;;;;4991313;28;20037;-60
2022/07/24 11:20:18;;;;;;;3.90;3.58;;;27.40;88.30;;;;;;4983960;28;20018;-59
2022/07/24 11:22:50;;;;;;;3.05;2.75;;;27.40;88.30;;;;;;5007845;28;20053;-59
2022/07/24 11:25:27;;;;;;;4.82;3.38;;;27.40;87.20;;;;;;5000895;28;20022;-59
2022/07/24 11:27:56;;;;;;;3.72;3.38;;;27.40;87.10;;;;;;5007800;28;20062;-58
2022/07/24 11:30:27;;;;;;;4.47;2.97;;;27.40;87.00;;;;;;5007998;28;20052;-60
2022/07/24 11:32:53;;;;;;;4.63;3.67;;;27.40;89.00;;;;;;4992851;28;20026;-59
2022/07/24 11:35:38;;;;;;;4.47;3.05;;;27.40;87.90;;;;;;5011995;28;20021;-59
2022/07/24 11:38:06;;;;;;;3.10;2.77;;;27.40;87.60;;;;;;5012013;28;20026;-61
2022/07/24 11:40:33;;;;;;;3.78;3.05;;;27.40;87.50;;;;;;5002568;28;20453;-59
2022/07/24 11:43:01;;;;;;;5.10;3.90;;;27.50;87.50;;;;;;5011701;28;20026;-57
2022/07/24 11:45:27;;;;;;;3.88;3.47;;;27.40;88.50;;;;;;5010476;28;20026;-58
2022/07/24 11:47:54;;;;;;;4.00;3.28;;;27.40;86.80;;;;;;5012126;28;20045;-58
2022/07/24 11:50:23;;;;;;;4.10;3.70;;;27.40;89.80;;;;;;5011810;28;20409;-60
2022/07/24 11:52:49;;;;;;;5.07;3.55;;;27.50;87.80;;;;;;4993941;28;20392;-57
2022/07/24 11:55:18;;;;;;;4.18;3.75;;;27.50;87.90;;;;;;5011796;28;20033;-55
2022/07/24 11:57:47;;;;;;;3.50;3.05;;;27.60;87.30;;;;;;5011255;28;20029;-58
2022/07/24 12:00:16;;;;;;;4.90;3.60;;;27.70;86.40;;;;;;5011541;28;20022;-59
2022/07/24 12:02:47;;;;;;;4.05;3.67;;;27.70;87.00;;;;;;5011204;28;20034;-60
2022/07/24 12:05:22;;;;;;;4.50;3.67;;;27.70;88.50;;;;;;5011254;28;20404;-59
2022/07/24 12:07:48;;;;;;;4.13;3.55;;;27.80;87.30;;;;;;5011479;28;20080;-59
2022/07/24 12:10:19;;;;;;;3.60;3.30;;;27.90;87.90;;;;;;5011093;28;20071;-58
2022/07/24 12:12:45;;;;;;;5.22;4.13;;;28.10;87.40;;;;;;5007064;28;20131;-58
2022/07/24 12:15:13;;;;;;;3.88;3.25;;;28.10;86.80;;;;;;5011465;28;20017;-57
2022/07/24 12:18:02;;;;;;;5.53;3.85;;;28.20;86.80;;;;;;5010858;28;20408;-56
2022/07/24 12:20:36;;;;;;;4.30;3.92;;;28.20;86.40;;;;;;5005000;28;20022;-59
2022/07/24 12:23:07;;;;;;;3.97;3.67;;;28.20;86.30;;;;;;5010550;28;20033;-59
2022/07/24 12:25:33;;;;;;;3.83;3.53;;;28.30;86.00;;;;;;5010752;28;20022;-57
2022/07/24 12:28:05;;;;;;;3.92;3.00;;;28.20;84.70;;;;;;5010726;28;20370;-61
2022/07/24 12:30:33;;;;;;;4.78;3.40;;;28.10;85.00;;;;;;5010471;28;20088;-57
2022/07/24 12:33:03;;;;;;;4.78;4.43;;;28.00;85.90;;;;;;5010215;28;20440;-59
2022/07/24 12:35:33;;;;;;;3.95;3.58;;;28.00;85.20;;;;;;5009922;28;20030;-59
2022/07/24 12:38:02;;;;;;;4.80;3.75;;;28.00;85.70;;;;;;5010477;28;20026;-59
2022/07/24 12:40:35;;;;;;;3.45;3.17;;;28.10;86.50;;;;;;5010477;28;20018;-58
2022/07/24 12:43:07;;;;;;;3.55;3.17;;;28.30;85.40;;;;;;5008646;28;20130;-60
2022/07/24 12:45:32;;;;;;;3.42;3.13;;;28.50;84.40;;;;;;5010215;28;20038;-58
2022/07/24 12:48:18;;;;;;;3.45;3.17;;;28.50;84.10;;;;;;5009860;28;20108;-60
2022/07/24 12:51:09;;;;;;;6.10;3.55;;;28.60;84.10;;;;;;4999958;28;20089;-57
2022/07/24 12:53:37;;;;;;;3.00;2.80;;;28.60;83.90;;;;;;5005755;28;20026;-56
2022/07/24 12:56:10;;;;;;;3.40;3.10;;;28.60;85.40;;;;;;5010002;28;20033;-60
2022/07/24 12:58:53;;;;;;;4.47;3.05;;;28.50;83.80;;;;;;5009635;28;20523;-58